sensor_id;sensor_type;location;lat;lon;timestamp;temperature;humidity
10692;DHT22;5396;50.950;6.988;2022-08-19T00:01:17;20.40;99.90
10692;DHT22;5396;50.950;6.988;2022-08-19T00:03:43;20.40;99.90
10692;DHT22;5396;50.950;6.988;2022-08-19T00:06:09;20.40;99.90
10692;DHT22;5396;50.950;6.988;2022-08-19T00:08:35;20.40;99.90
10692;DHT22;5396;50.950;6.988;2022-08-19T00:11:01;20.40;99.90
10692;DHT22;5396;50.950;6.988;2022-08-19T00:13:26;20.40;99.90
10692;DHT22;5396;50.950;6.988;2022-08-19T00:15:54;20.40;99.90
10692;DHT22;5396;50.950;6.988;2022-08-19T00:18:20;20.30;99.90
10692;DHT22;5396;50.950;6.988;2022-08-19T00:20:45;20.30;99.90
10692;DHT22;5396;50.950;6.988;2022-08-19T00:23:11;20.30;99.90
10692;DHT22;5396;50.950;6.988;2022-08-19T00:25:36;20.30;99.90
10692;DHT22;5396;50.950;6.988;2022-08-19T00:28:03;20.30;99.90
10692;DHT22;5396;50.950;6.988;2022-08-19T00:30:28;20.30;99.90
10692;DHT22;5396;50.950;6.988;2022-08-19T00:32:54;20.30;99.90
10692;DHT22;5396;50.950;6.988;2022-08-19T00:35:21;20.30;99.90
10692;DHT22;5396;50.950;6.988;2022-08-19T00:37:48;20.30;99.90
10692;DHT22;5396;50.950;6.988;2022-08-19T00:40:15;20.30;99.90
10692;DHT22;5396;50.950;6.988;2022-08-19T00:42:41;20.30;99.90
10692;DHT22;5396;50.950;6.988;2022-08-19T00:45:18;20.20;99.90
10692;DHT22;5396;50.950;6.988;2022-08-19T00:47:45;20.20;99.90
10692;DHT22;5396;50.950;6.988;2022-08-19T00:50:13;20.20;99.90
10692;DHT22;5396;50.950;6.988;2022-08-19T00:52:43;20.20;99.90
10692;DHT22;5396;50.950;6.988;2022-08-19T00:55:14;20.20;99.90
10692;DHT22;5396;50.950;6.988;2022-08-19T00:57:43;20.10;99.90
10692;DHT22;5396;50.950;6.988;2022-08-19T01:00:14;20.10;99.90
10692;DHT22;5396;50.950;6.988;2022-08-19T01:02:41;20.10;99.90
10692;DHT22;5396;50.950;6.988;2022-08-19T01:05:10;20.10;99.90
10692;DHT22;5396;50.950;6.988;2022-08-19T01:07:39;20.10;99.90
10692;DHT22;5396;50.950;6.988;2022-08-19T01:10:09;20.00;99.90
10692;DHT22;5396;50.950;6.988;2022-08-19T01:12:36;19.90;99.90
10692;DHT22;5396;50.950;6.988;2022-08-19T01:15:04;19.90;99.90
10692;DHT22;5396;50.950;6.988;2022-08-19T01:17:29;19.90;99.90
10692;DHT22;5396;50.950;6.988;2022-08-19T01:19:55;19.80;99.90
10692;DHT22;5396;50.950;6.988;2022-08-19T01:24:50;19.80;99.90
10692;DHT22;5396;50.950;6.988;2022-08-19T01:27:17;19.80;99.90
10692;DHT22;5396;50.950;6.988;2022-08-19T01:29:44;19.80;99.90
10692;DHT22;5396;50.950;6.988;2022-08-19T01:32:13;19.80;99.90
10692;DHT22;5396;50.950;6.988;2022-08-19T01:34:40;19.80;99.90
10692;DHT22;5396;50.950;6.988;2022-08-19T01:37:08;19.70;99.90
10692;DHT22;5396;50.950;6.988;2022-08-19T01:39:37;19.70;99.90
10692;DHT22;5396;50.950;6.988;2022-08-19T01:42:04;19.60;99.90
10692;DHT22;5396;50.950;6.988;2022-08-19T01:44:30;19.60;99.90
10692;DHT22;5396;50.950;6.988;2022-08-19T01:46:56;19.70;99.90
10692;DHT22;5396;50.950;6.988;2022-08-19T01:49:23;19.60;99.90
10692;DHT22;5396;50.950;6.988;2022-08-19T01:51:50;19.60;99.90
10692;DHT22;5396;50.950;6.988;2022-08-19T01:54:18;19.60;99.90
10692;DHT22;5396;50.950;6.988;2022-08-19T01:56:43;19.60;99.90
10692;DHT22;5396;50.950;6.988;2022-08-19T01:59:16;19.60;99.90
10692;DHT22;5396;50.950;6.988;2022-08-19T02:01:43;19.50;99.90
10692;DHT22;5396;50.950;6.988;2022-08-19T02:04:08;19.40;99.90
10692;DHT22;5396;50.950;6.988;2022-08-19T02:06:34;19.40;99.90
10692;DHT22;5396;50.950;6.988;2022-08-19T02:09:02;19.40;99.90
10692;DHT22;5396;50.950;6.988;2022-08-19T02:11:33;19.30;99.90
10692;DHT22;5396;50.950;6.988;2022-08-19T02:14:00;19.30;99.90
10692;DHT22;5396;50.950;6.988;2022-08-19T02:16:28;19.20;99.90
10692;DHT22;5396;50.950;6.988;2022-08-19T02:18:53;19.20;99.90
10692;DHT22;5396;50.950;6.988;2022-08-19T02:21:21;19.20;99.90
10692;DHT22;5396;50.950;6.988;2022-08-19T02:23:48;19.20;99.90
10692;DHT22;5396;50.950;6.988;2022-08-19T02:26:14;19.10;99.90
10692;DHT22;5396;50.950;6.988;2022-08-19T02:28:41;19.10;99.90
10692;DHT22;5396;50.950;6.988;2022-08-19T02:31:12;19.10;99.90
10692;DHT22;5396;50.950;6.988;2022-08-19T02:33:38;19.10;99.90
10692;DHT22;5396;50.950;6.988;2022-08-19T02:36:05;19.10;99.90
10692;DHT22;5396;50.950;6.988;2022-08-19T02:38:32;19.00;99.90
10692;DHT22;5396;50.950;6.988;2022-08-19T02:41:04;19.00;99.90
10692;DHT22;5396;50.950;6.988;2022-08-19T02:43:31;19.00;99.90
10692;DHT22;5396;50.950;6.988;2022-08-19T02:45:57;18.90;99.90
10692;DHT22;5396;50.950;6.988;2022-08-19T02:48:24;18.90;99.90
10692;DHT22;5396;50.950;6.988;2022-08-19T02:50:52;18.90;99.90
10692;DHT22;5396;50.950;6.988;2022-08-19T02:53:21;18.90;99.90
10692;DHT22;5396;50.950;6.988;2022-08-19T02:55:48;18.90;99.90
10692;DHT22;5396;50.950;6.988;2022-08-19T02:58:14;18.90;99.90
10692;DHT22;5396;50.950;6.988;2022-08-19T03:00:52;18.80;99.90
10692;DHT22;5396;50.950;6.988;2022-08-19T03:03:19;18.80;99.90
10692;DHT22;5396;50.950;6.988;2022-08-19T03:05:44;18.80;99.90
10692;DHT22;5396;50.950;6.988;2022-08-19T03:08:11;18.80;99.90
10692;DHT22;5396;50.950;6.988;2022-08-19T03:10:46;18.80;99.90
10692;DHT22;5396;50.950;6.988;2022-08-19T03:13:14;18.80;99.90
10692;DHT22;5396;50.950;6.988;2022-08-19T03:15:42;18.90;99.90
10692;DHT22;5396;50.950;6.988;2022-08-19T03:18:08;18.90;99.90
10692;DHT22;5396;50.950;6.988;2022-08-19T03:20:34;18.90;99.90
10692;DHT22;5396;50.950;6.988;2022-08-19T03:22:59;18.90;99.90
10692;DHT22;5396;50.950;6.988;2022-08-19T03:25:25;18.90;99.90
10692;DHT22;5396;50.950;6.988;2022-08-19T03:27:50;18.90;99.90
10692;DHT22;5396;50.950;6.988;2022-08-19T03:30:16;19.00;99.90
10692;DHT22;5396;50.950;6.988;2022-08-19T03:32:42;19.00;99.90
10692;DHT22;5396;50.950;6.988;2022-08-19T03:35:08;19.00;99.90
10692;DHT22;5396;50.950;6.988;2022-08-19T03:37:34;19.00;99.90
10692;DHT22;5396;50.950;6.988;2022-08-19T03:40:00;19.00;99.90
10692;DHT22;5396;50.950;6.988;2022-08-19T03:42:28;19.00;99.90
10692;DHT22;5396;50.950;6.988;2022-08-19T03:44:54;18.90;99.90
10692;DHT22;5396;50.950;6.988;2022-08-19T03:47:20;18.90;99.90
10692;DHT22;5396;50.950;6.988;2022-08-19T03:49:45;18.90;99.90
10692;DHT22;5396;50.950;6.988;2022-08-19T03:52:11;18.90;99.90
10692;DHT22;5396;50.950;6.988;2022-08-19T03:54:37;18.90;99.90
10692;DHT22;5396;50.950;6.988;2022-08-19T03:57:03;18.90;99.90
10692;DHT22;5396;50.950;6.988;2022-08-19T03:59:31;18.80;99.90
10692;DHT22;5396;50.950;6.988;2022-08-19T04:02:01;18.80;99.90
10692;DHT22;5396;50.950;6.988;2022-08-19T04:04:28;18.80;99.90
10692;DHT22;5396;50.950;6.988;2022-08-19T04:06:54;18.80;99.90
10692;DHT22;5396;50.950;6.988;2022-08-19T04:09:20;18.80;99.90
10692;DHT22;5396;50.950;6.988;2022-08-19T04:11:48;18.80;99.90
10692;DHT22;5396;50.950;6.988;2022-08-19T04:14:18;18.90;99.90
10692;DHT22;5396;50.950;6.988;2022-08-19T04:16:45;18.90;99.90
10692;DHT22;5396;50.950;6.988;2022-08-19T04:19:12;18.90;99.90
10692;DHT22;5396;50.950;6.988;2022-08-19T04:21:38;19.00;99.90
10692;DHT22;5396;50.950;6.988;2022-08-19T04:24:05;19.00;99.90
10692;DHT22;5396;50.950;6.988;2022-08-19T04:26:34;19.00;99.90
10692;DHT22;5396;50.950;6.988;2022-08-19T04:29:01;19.00;99.90
10692;DHT22;5396;50.950;6.988;2022-08-19T04:31:29;19.00;99.90
10692;DHT22;5396;50.950;6.988;2022-08-19T04:33:56;19.00;99.90
10692;DHT22;5396;50.950;6.988;2022-08-19T04:36:30;19.00;99.90
10692;DHT22;5396;50.950;6.988;2022-08-19T04:38:58;19.00;99.90
10692;DHT22;5396;50.950;6.988;2022-08-19T04:41:25;18.90;99.90
10692;DHT22;5396;50.950;6.988;2022-08-19T04:44:10;18.90;99.90
10692;DHT22;5396;50.950;6.988;2022-08-19T04:46:36;18.90;99.90
10692;DHT22;5396;50.950;6.988;2022-08-19T04:49:04;18.90;99.90
10692;DHT22;5396;50.950;6.988;2022-08-19T04:51:31;18.90;99.90
10692;DHT22;5396;50.950;6.988;2022-08-19T04:53:57;18.90;99.90
10692;DHT22;5396;50.950;6.988;2022-08-19T04:56:23;18.90;99.90
10692;DHT22;5396;50.950;6.988;2022-08-19T04:58:52;18.90;99.90
10692;DHT22;5396;50.950;6.988;2022-08-19T05:01:21;18.90;99.90
10692;DHT22;5396;50.950;6.988;2022-08-19T05:03:47;19.00;99.90
10692;DHT22;5396;50.950;6.988;2022-08-19T05:06:15;19.00;99.90
10692;DHT22;5396;50.950;6.988;2022-08-19T05:08:42;19.00;99.90
10692;DHT22;5396;50.950;6.988;2022-08-19T05:11:38;19.00;99.90
10692;DHT22;5396;50.950;6.988;2022-08-19T05:14:07;19.00;99.90
10692;DHT22;5396;50.950;6.988;2022-08-19T05:16:33;19.00;99.90
10692;DHT22;5396;50.950;6.988;2022-08-19T05:18:59;19.10;99.90
10692;DHT22;5396;50.950;6.988;2022-08-19T05:21:43;19.10;99.90
10692;DHT22;5396;50.950;6.988;2022-08-19T05:24:28;19.10;99.90
10692;DHT22;5396;50.950;6.988;2022-08-19T05:26:55;19.20;99.90
10692;DHT22;5396;50.950;6.988;2022-08-19T05:29:26;19.30;99.90
10692;DHT22;5396;50.950;6.988;2022-08-19T05:31:53;19.30;99.90
10692;DHT22;5396;50.950;6.988;2022-08-19T05:34:20;19.30;99.90
10692;DHT22;5396;50.950;6.988;2022-08-19T05:36:48;19.30;99.90
10692;DHT22;5396;50.950;6.988;2022-08-19T05:39:18;19.30;99.90
10692;DHT22;5396;50.950;6.988;2022-08-19T05:41:50;19.40;99.90
10692;DHT22;5396;50.950;6.988;2022-08-19T05:44:17;19.40;99.90
10692;DHT22;5396;50.950;6.988;2022-08-19T05:46:45;19.30;99.90
10692;DHT22;5396;50.950;6.988;2022-08-19T05:49:19;19.30;99.90
10692;DHT22;5396;50.950;6.988;2022-08-19T05:51:44;19.20;99.90
10692;DHT22;5396;50.950;6.988;2022-08-19T05:54:11;19.20;99.90
10692;DHT22;5396;50.950;6.988;2022-08-19T05:56:42;19.20;99.90
10692;DHT22;5396;50.950;6.988;2022-08-19T05:59:10;19.20;99.90
10692;DHT22;5396;50.950;6.988;2022-08-19T06:01:41;19.20;99.90
10692;DHT22;5396;50.950;6.988;2022-08-19T06:04:07;19.20;99.90
10692;DHT22;5396;50.950;6.988;2022-08-19T06:06:34;19.20;99.90
10692;DHT22;5396;50.950;6.988;2022-08-19T06:09:05;19.20;99.90
10692;DHT22;5396;50.950;6.988;2022-08-19T06:11:42;19.20;99.90
10692;DHT22;5396;50.950;6.988;2022-08-19T06:14:14;19.20;99.90
10692;DHT22;5396;50.950;6.988;2022-08-19T06:16:42;19.30;99.90
10692;DHT22;5396;50.950;6.988;2022-08-19T06:19:10;19.30;99.90
10692;DHT22;5396;50.950;6.988;2022-08-19T06:21:38;19.30;99.90
10692;DHT22;5396;50.950;6.988;2022-08-19T06:24:07;19.30;99.90
10692;DHT22;5396;50.950;6.988;2022-08-19T06:26:35;19.30;99.90
10692;DHT22;5396;50.950;6.988;2022-08-19T06:29:03;19.40;99.90
10692;DHT22;5396;50.950;6.988;2022-08-19T06:31:29;19.40;99.90
10692;DHT22;5396;50.950;6.988;2022-08-19T06:33:59;19.50;99.90
10692;DHT22;5396;50.950;6.988;2022-08-19T06:36:32;19.50;99.90
10692;DHT22;5396;50.950;6.988;2022-08-19T06:39:06;19.60;99.90
10692;DHT22;5396;50.950;6.988;2022-08-19T06:41:38;19.60;99.90
10692;DHT22;5396;50.950;6.988;2022-08-19T06:44:06;19.60;99.90
10692;DHT22;5396;50.950;6.988;2022-08-19T06:46:32;19.60;99.90
10692;DHT22;5396;50.950;6.988;2022-08-19T06:48:58;19.70;99.90
10692;DHT22;5396;50.950;6.988;2022-08-19T06:51:24;19.80;99.90
10692;DHT22;5396;50.950;6.988;2022-08-19T06:53:51;19.80;99.90
10692;DHT22;5396;50.950;6.988;2022-08-19T06:56:21;19.80;99.90
10692;DHT22;5396;50.950;6.988;2022-08-19T06:58:47;19.80;99.90
10692;DHT22;5396;50.950;6.988;2022-08-19T07:01:17;19.90;99.90
10692;DHT22;5396;50.950;6.988;2022-08-19T07:03:42;19.90;99.90
10692;DHT22;5396;50.950;6.988;2022-08-19T07:06:11;20.00;99.90
10692;DHT22;5396;50.950;6.988;2022-08-19T07:08:38;20.10;99.90
10692;DHT22;5396;50.950;6.988;2022-08-19T07:11:11;20.30;99.90
10692;DHT22;5396;50.950;6.988;2022-08-19T07:13:39;20.40;99.90
10692;DHT22;5396;50.950;6.988;2022-08-19T07:16:11;20.50;99.90
10692;DHT22;5396;50.950;6.988;2022-08-19T07:18:38;20.60;99.90
10692;DHT22;5396;50.950;6.988;2022-08-19T07:23:30;20.60;99.90
10692;DHT22;5396;50.950;6.988;2022-08-19T07:25:55;20.50;99.90
10692;DHT22;5396;50.950;6.988;2022-08-19T07:28:22;20.40;99.90
10692;DHT22;5396;50.950;6.988;2022-08-19T07:30:48;20.40;99.90
10692;DHT22;5396;50.950;6.988;2022-08-19T07:33:15;20.50;99.90
10692;DHT22;5396;50.950;6.988;2022-08-19T07:35:41;20.70;99.90
10692;DHT22;5396;50.950;6.988;2022-08-19T07:38:07;20.70;99.90
10692;DHT22;5396;50.950;6.988;2022-08-19T07:40:33;20.70;99.90
10692;DHT22;5396;50.950;6.988;2022-08-19T07:42:58;20.70;99.90
10692;DHT22;5396;50.950;6.988;2022-08-19T07:45:24;20.70;99.90
10692;DHT22;5396;50.950;6.988;2022-08-19T07:47:50;20.70;99.90
10692;DHT22;5396;50.950;6.988;2022-08-19T07:50:18;20.50;99.90
10692;DHT22;5396;50.950;6.988;2022-08-19T07:52:44;20.60;99.90
10692;DHT22;5396;50.950;6.988;2022-08-19T07:55:11;20.60;99.90
10692;DHT22;5396;50.950;6.988;2022-08-19T07:57:36;20.50;99.90
10692;DHT22;5396;50.950;6.988;2022-08-19T08:00:04;20.50;99.90
10692;DHT22;5396;50.950;6.988;2022-08-19T08:02:30;20.70;99.90
10692;DHT22;5396;50.950;6.988;2022-08-19T08:04:57;20.80;99.90
10692;DHT22;5396;50.950;6.988;2022-08-19T08:07:41;20.80;99.90
10692;DHT22;5396;50.950;6.988;2022-08-19T08:10:25;20.80;99.90
10692;DHT22;5396;50.950;6.988;2022-08-19T08:12:51;20.80;99.90
10692;DHT22;5396;50.950;6.988;2022-08-19T08:15:17;20.90;99.90
10692;DHT22;5396;50.950;6.988;2022-08-19T08:17:44;20.90;99.90
10692;DHT22;5396;50.950;6.988;2022-08-19T08:20:13;20.90;99.90
10692;DHT22;5396;50.950;6.988;2022-08-19T08:22:43;20.90;99.90
10692;DHT22;5396;50.950;6.988;2022-08-19T08:25:28;20.70;99.90
10692;DHT22;5396;50.950;6.988;2022-08-19T08:27:54;20.70;99.90
10692;DHT22;5396;50.950;6.988;2022-08-19T08:30:24;20.80;99.90
10692;DHT22;5396;50.950;6.988;2022-08-19T08:32:50;20.90;99.90
10692;DHT22;5396;50.950;6.988;2022-08-19T08:35:19;20.90;99.90
10692;DHT22;5396;50.950;6.988;2022-08-19T08:37:47;21.00;99.90
10692;DHT22;5396;50.950;6.988;2022-08-19T08:40:39;21.00;99.90
10692;DHT22;5396;50.950;6.988;2022-08-19T08:43:24;21.00;99.90
10692;DHT22;5396;50.950;6.988;2022-08-19T08:46:04;21.10;99.90
10692;DHT22;5396;50.950;6.988;2022-08-19T08:48:40;21.20;99.90
10692;DHT22;5396;50.950;6.988;2022-08-19T08:51:12;21.30;99.90
10692;DHT22;5396;50.950;6.988;2022-08-19T08:53:41;21.50;99.90
10692;DHT22;5396;50.950;6.988;2022-08-19T08:56:10;21.70;99.90
10692;DHT22;5396;50.950;6.988;2022-08-19T09:01:09;22.20;99.90
10692;DHT22;5396;50.950;6.988;2022-08-19T09:03:37;22.20;99.90
10692;DHT22;5396;50.950;6.988;2022-08-19T09:06:11;22.30;99.90
10692;DHT22;5396;50.950;6.988;2022-08-19T09:08:59;22.50;99.90
10692;DHT22;5396;50.950;6.988;2022-08-19T09:11:53;22.60;99.90
10692;DHT22;5396;50.950;6.988;2022-08-19T09:14:46;22.60;99.90
10692;DHT22;5396;50.950;6.988;2022-08-19T09:17:14;22.60;99.90
10692;DHT22;5396;50.950;6.988;2022-08-19T09:22:15;22.80;99.90
10692;DHT22;5396;50.950;6.988;2022-08-19T09:24:41;22.90;99.90
10692;DHT22;5396;50.950;6.988;2022-08-19T09:27:06;22.80;99.90
10692;DHT22;5396;50.950;6.988;2022-08-19T09:29:32;22.70;99.90
10692;DHT22;5396;50.950;6.988;2022-08-19T09:31:57;22.80;99.90
10692;DHT22;5396;50.950;6.988;2022-08-19T09:34:23;22.90;99.90
10692;DHT22;5396;50.950;6.988;2022-08-19T09:36:49;22.80;99.90
10692;DHT22;5396;50.950;6.988;2022-08-19T09:39:18;22.90;99.90
10692;DHT22;5396;50.950;6.988;2022-08-19T09:41:44;23.10;99.90
10692;DHT22;5396;50.950;6.988;2022-08-19T09:44:09;23.10;99.90
10692;DHT22;5396;50.950;6.988;2022-08-19T09:46:37;23.10;99.90
10692;DHT22;5396;50.950;6.988;2022-08-19T09:49:02;23.00;99.90
10692;DHT22;5396;50.950;6.988;2022-08-19T09:51:30;22.80;99.90
10692;DHT22;5396;50.950;6.988;2022-08-19T09:54:00;22.70;99.90
10692;DHT22;5396;50.950;6.988;2022-08-19T09:56:26;22.70;99.90
10692;DHT22;5396;50.950;6.988;2022-08-19T09:58:52;22.80;99.90
10692;DHT22;5396;50.950;6.988;2022-08-19T10:01:21;22.90;99.90
10692;DHT22;5396;50.950;6.988;2022-08-19T10:03:53;23.00;99.90
10692;DHT22;5396;50.950;6.988;2022-08-19T10:06:20;23.10;99.90
10692;DHT22;5396;50.950;6.988;2022-08-19T10:08:47;23.30;99.90
10692;DHT22;5396;50.950;6.988;2022-08-19T10:11:13;23.50;99.90
10692;DHT22;5396;50.950;6.988;2022-08-19T10:13:41;23.80;99.90
10692;DHT22;5396;50.950;6.988;2022-08-19T10:16:10;23.70;99.90
10692;DHT22;5396;50.950;6.988;2022-08-19T10:18:37;23.60;99.90
10692;DHT22;5396;50.950;6.988;2022-08-19T10:21:29;23.50;99.90
10692;DHT22;5396;50.950;6.988;2022-08-19T10:23:58;23.60;99.90
10692;DHT22;5396;50.950;6.988;2022-08-19T10:26:27;23.70;99.90
10692;DHT22;5396;50.950;6.988;2022-08-19T10:28:54;23.90;99.90
10692;DHT22;5396;50.950;6.988;2022-08-19T10:31:22;24.20;99.90
10692;DHT22;5396;50.950;6.988;2022-08-19T10:33:49;24.40;99.90
10692;DHT22;5396;50.950;6.988;2022-08-19T10:36:19;24.50;99.90
10692;DHT22;5396;50.950;6.988;2022-08-19T10:38:47;24.80;99.90
10692;DHT22;5396;50.950;6.988;2022-08-19T10:41:23;25.10;99.90
10692;DHT22;5396;50.950;6.988;2022-08-19T10:43:57;25.20;99.90
10692;DHT22;5396;50.950;6.988;2022-08-19T10:46:26;25.30;99.90
10692;DHT22;5396;50.950;6.988;2022-08-19T10:48:52;25.30;99.90
10692;DHT22;5396;50.950;6.988;2022-08-19T10:51:18;25.30;99.90
10692;DHT22;5396;50.950;6.988;2022-08-19T10:54:03;25.00;99.90
10692;DHT22;5396;50.950;6.988;2022-08-19T10:56:30;24.80;99.90
10692;DHT22;5396;50.950;6.988;2022-08-19T10:59:15;24.80;99.90
10692;DHT22;5396;50.950;6.988;2022-08-19T11:01:43;24.70;99.90
10692;DHT22;5396;50.950;6.988;2022-08-19T11:04:09;24.50;99.90
10692;DHT22;5396;50.950;6.988;2022-08-19T11:06:37;24.40;99.90
10692;DHT22;5396;50.950;6.988;2022-08-19T11:09:04;24.40;99.90
10692;DHT22;5396;50.950;6.988;2022-08-19T11:11:30;24.80;99.90
10692;DHT22;5396;50.950;6.988;2022-08-19T11:13:55;25.00;99.90
10692;DHT22;5396;50.950;6.988;2022-08-19T11:16:26;25.20;99.90
10692;DHT22;5396;50.950;6.988;2022-08-19T11:18:58;25.30;99.90
10692;DHT22;5396;50.950;6.988;2022-08-19T11:21:27;25.70;99.90
10692;DHT22;5396;50.950;6.988;2022-08-19T11:23:56;25.90;99.90
10692;DHT22;5396;50.950;6.988;2022-08-19T11:26:23;25.80;99.90
10692;DHT22;5396;50.950;6.988;2022-08-19T11:28:50;25.50;99.90
10692;DHT22;5396;50.950;6.988;2022-08-19T11:31:21;25.50;99.90
10692;DHT22;5396;50.950;6.988;2022-08-19T11:33:47;25.50;99.90
10692;DHT22;5396;50.950;6.988;2022-08-19T11:36:17;25.60;99.90
10692;DHT22;5396;50.950;6.988;2022-08-19T11:38:44;25.70;99.90
10692;DHT22;5396;50.950;6.988;2022-08-19T11:41:10;25.50;99.90
10692;DHT22;5396;50.950;6.988;2022-08-19T11:43:37;25.60;99.90
10692;DHT22;5396;50.950;6.988;2022-08-19T11:46:08;25.60;99.90
10692;DHT22;5396;50.950;6.988;2022-08-19T11:48:35;25.40;99.90
10692;DHT22;5396;50.950;6.988;2022-08-19T11:51:06;25.20;99.90
10692;DHT22;5396;50.950;6.988;2022-08-19T11:53:32;25.20;99.90
10692;DHT22;5396;50.950;6.988;2022-08-19T11:55:59;25.30;99.90
10692;DHT22;5396;50.950;6.988;2022-08-19T11:58:25;25.10;99.90
10692;DHT22;5396;50.950;6.988;2022-08-19T12:00:51;25.00;99.90
10692;DHT22;5396;50.950;6.988;2022-08-19T12:03:17;24.80;99.90
10692;DHT22;5396;50.950;6.988;2022-08-19T12:05:45;24.80;99.90
10692;DHT22;5396;50.950;6.988;2022-08-19T12:08:10;24.90;99.90
10692;DHT22;5396;50.950;6.988;2022-08-19T12:10:39;25.00;99.90
10692;DHT22;5396;50.950;6.988;2022-08-19T12:13:06;25.10;99.90
10692;DHT22;5396;50.950;6.988;2022-08-19T12:15:38;25.40;99.90
10692;DHT22;5396;50.950;6.988;2022-08-19T12:18:06;25.50;99.90
10692;DHT22;5396;50.950;6.988;2022-08-19T12:20:37;25.80;99.90
10692;DHT22;5396;50.950;6.988;2022-08-19T12:23:05;25.90;99.90
10692;DHT22;5396;50.950;6.988;2022-08-19T12:25:31;26.10;99.90
10692;DHT22;5396;50.950;6.988;2022-08-19T12:27:58;26.20;99.90
10692;DHT22;5396;50.950;6.988;2022-08-19T12:30:24;26.00;99.90
10692;DHT22;5396;50.950;6.988;2022-08-19T12:32:50;26.00;99.90
10692;DHT22;5396;50.950;6.988;2022-08-19T12:35:17;26.10;99.90
10692;DHT22;5396;50.950;6.988;2022-08-19T12:37:46;26.20;99.90
10692;DHT22;5396;50.950;6.988;2022-08-19T12:40:14;26.10;99.90
10692;DHT22;5396;50.950;6.988;2022-08-19T12:42:40;26.00;99.90
10692;DHT22;5396;50.950;6.988;2022-08-19T12:45:12;25.90;99.90
10692;DHT22;5396;50.950;6.988;2022-08-19T12:47:39;25.90;99.90
10692;DHT22;5396;50.950;6.988;2022-08-19T12:50:05;26.00;99.90
10692;DHT22;5396;50.950;6.988;2022-08-19T12:52:36;26.00;99.90
10692;DHT22;5396;50.950;6.988;2022-08-19T12:55:07;26.00;99.90
10692;DHT22;5396;50.950;6.988;2022-08-19T12:57:33;26.40;99.90
10692;DHT22;5396;50.950;6.988;2022-08-19T13:00:10;27.40;99.90
10692;DHT22;5396;50.950;6.988;2022-08-19T13:02:42;29.00;99.90
10692;DHT22;5396;50.950;6.988;2022-08-19T13:05:13;30.20;99.90
10692;DHT22;5396;50.950;6.988;2022-08-19T13:07:40;31.20;99.90
10692;DHT22;5396;50.950;6.988;2022-08-19T13:10:08;31.80;99.90
10692;DHT22;5396;50.950;6.988;2022-08-19T13:12:33;31.20;99.90
10692;DHT22;5396;50.950;6.988;2022-08-19T13:14:59;30.20;99.90
10692;DHT22;5396;50.950;6.988;2022-08-19T13:17:25;30.20;99.90
10692;DHT22;5396;50.950;6.988;2022-08-19T13:19:50;30.80;99.90
10692;DHT22;5396;50.950;6.988;2022-08-19T13:22:17;31.80;99.90
10692;DHT22;5396;50.950;6.988;2022-08-19T13:24:42;32.30;99.90
10692;DHT22;5396;50.950;6.988;2022-08-19T13:27:08;31.50;99.90
10692;DHT22;5396;50.950;6.988;2022-08-19T13:29:34;31.00;99.90
10692;DHT22;5396;50.950;6.988;2022-08-19T13:32:18;31.20;99.90
10692;DHT22;5396;50.950;6.988;2022-08-19T13:35:03;31.60;99.90
10692;DHT22;5396;50.950;6.988;2022-08-19T13:37:29;31.80;99.90
10692;DHT22;5396;50.950;6.988;2022-08-19T13:40:09;32.40;99.90
10692;DHT22;5396;50.950;6.988;2022-08-19T13:42:39;32.30;99.90
10692;DHT22;5396;50.950;6.988;2022-08-19T13:45:06;30.90;99.90
10692;DHT22;5396;50.950;6.988;2022-08-19T13:47:32;30.40;99.90
10692;DHT22;5396;50.950;6.988;2022-08-19T13:50:02;30.50;99.90
10692;DHT22;5396;50.950;6.988;2022-08-19T13:52:27;30.20;99.90
10692;DHT22;5396;50.950;6.988;2022-08-19T13:54:53;30.70;99.90
10692;DHT22;5396;50.950;6.988;2022-08-19T13:57:19;31.10;99.90
10692;DHT22;5396;50.950;6.988;2022-08-19T13:59:45;31.70;99.90
10692;DHT22;5396;50.950;6.988;2022-08-19T14:02:10;32.20;99.90
10692;DHT22;5396;50.950;6.988;2022-08-19T14:04:36;32.10;99.90
10692;DHT22;5396;50.950;6.988;2022-08-19T14:07:03;31.30;99.90
10692;DHT22;5396;50.950;6.988;2022-08-19T14:09:29;30.80;99.90
10692;DHT22;5396;50.950;6.988;2022-08-19T14:11:55;31.30;99.90
10692;DHT22;5396;50.950;6.988;2022-08-19T14:14:21;32.30;99.90
10692;DHT22;5396;50.950;6.988;2022-08-19T14:16:47;33.20;99.90
10692;DHT22;5396;50.950;6.988;2022-08-19T14:19:13;34.10;99.90
10692;DHT22;5396;50.950;6.988;2022-08-19T14:21:39;34.10;99.90
10692;DHT22;5396;50.950;6.988;2022-08-19T14:24:06;33.30;99.90
10692;DHT22;5396;50.950;6.988;2022-08-19T14:26:32;31.60;99.90
10692;DHT22;5396;50.950;6.988;2022-08-19T14:28:58;31.50;99.90
10692;DHT22;5396;50.950;6.988;2022-08-19T14:31:24;32.20;99.90
10692;DHT22;5396;50.950;6.988;2022-08-19T14:33:50;32.50;99.90
10692;DHT22;5396;50.950;6.988;2022-08-19T14:36:17;33.00;99.90
10692;DHT22;5396;50.950;6.988;2022-08-19T14:38:43;33.70;99.90
10692;DHT22;5396;50.950;6.988;2022-08-19T14:41:17;34.70;99.90
10692;DHT22;5396;50.950;6.988;2022-08-19T14:43:49;34.20;99.90
10692;DHT22;5396;50.950;6.988;2022-08-19T14:46:19;33.50;99.90
10692;DHT22;5396;50.950;6.988;2022-08-19T14:48:48;32.70;99.90
10692;DHT22;5396;50.950;6.988;2022-08-19T14:51:17;32.70;99.90
10692;DHT22;5396;50.950;6.988;2022-08-19T14:53:42;32.70;99.90
10692;DHT22;5396;50.950;6.988;2022-08-19T14:56:14;33.00;99.90
10692;DHT22;5396;50.950;6.988;2022-08-19T14:58:41;33.70;99.90
10692;DHT22;5396;50.950;6.988;2022-08-19T15:01:08;33.50;99.90
10692;DHT22;5396;50.950;6.988;2022-08-19T15:03:34;32.50;99.90
10692;DHT22;5396;50.950;6.988;2022-08-19T15:06:02;31.10;99.90
10692;DHT22;5396;50.950;6.988;2022-08-19T15:08:29;29.70;99.90
10692;DHT22;5396;50.950;6.988;2022-08-19T15:10:56;28.80;99.90
10692;DHT22;5396;50.950;6.988;2022-08-19T15:13:23;28.60;99.90
10692;DHT22;5396;50.950;6.988;2022-08-19T15:15:50;29.10;99.90
10692;DHT22;5396;50.950;6.988;2022-08-19T15:18:17;29.20;99.90
10692;DHT22;5396;50.950;6.988;2022-08-19T15:20:43;29.40;99.90
10692;DHT22;5396;50.950;6.988;2022-08-19T15:23:14;29.10;99.90
10692;DHT22;5396;50.950;6.988;2022-08-19T15:25:40;28.90;99.90
10692;DHT22;5396;50.950;6.988;2022-08-19T15:28:07;28.70;99.90
10692;DHT22;5396;50.950;6.988;2022-08-19T15:30:37;28.20;99.90
10692;DHT22;5396;50.950;6.988;2022-08-19T15:33:03;28.20;99.90
10692;DHT22;5396;50.950;6.988;2022-08-19T15:35:29;28.30;99.90
10692;DHT22;5396;50.950;6.988;2022-08-19T15:37:55;28.20;99.90
10692;DHT22;5396;50.950;6.988;2022-08-19T15:40:22;28.30;99.90
10692;DHT22;5396;50.950;6.988;2022-08-19T15:42:48;28.20;99.90
10692;DHT22;5396;50.950;6.988;2022-08-19T15:45:15;28.00;99.90
10692;DHT22;5396;50.950;6.988;2022-08-19T15:47:41;27.90;99.90
10692;DHT22;5396;50.950;6.988;2022-08-19T15:50:09;28.00;99.90
10692;DHT22;5396;50.950;6.988;2022-08-19T15:52:35;27.80;99.90
10692;DHT22;5396;50.950;6.988;2022-08-19T15:55:01;27.60;99.90
10692;DHT22;5396;50.950;6.988;2022-08-19T15:57:29;27.50;99.90
10692;DHT22;5396;50.950;6.988;2022-08-19T15:59:54;27.30;99.90
10692;DHT22;5396;50.950;6.988;2022-08-19T16:02:38;26.90;99.90